sensor_id;sensor_type;location;lat;lon;timestamp;pressure;altitude;pressure_sealevel;temperature;humidity
61039;BME280;46919;45.816;3.104;2022-12-07T00:01:31;98027.59;;;-0.46;100.00
61039;BME280;46919;45.816;3.104;2022-12-07T00:03:59;98037.91;;;-0.43;100.00
61039;BME280;46919;45.816;3.104;2022-12-07T00:06:39;98031.63;;;-0.42;100.00
61039;BME280;46919;45.816;3.104;2022-12-07T00:09:06;98024.34;;;-0.40;100.00
61039;BME280;46919;45.816;3.104;2022-12-07T00:11:32;98029.50;;;-0.39;100.00
61039;BME280;46919;45.816;3.104;2022-12-07T00:14:00;98033.81;;;-0.38;100.00
61039;BME280;46919;45.816;3.104;2022-12-07T00:16:28;98025.88;;;-0.38;100.00
61039;BME280;46919;45.816;3.104;2022-12-07T00:18:56;98029.03;;;-0.34;100.00
61039;BME280;46919;45.816;3.104;2022-12-07T00:21:24;98036.84;;;-0.32;100.00
61039;BME280;46919;45.816;3.104;2022-12-07T00:23:51;98027.06;;;-0.32;100.00
61039;BME280;46919;45.816;3.104;2022-12-07T00:26:22;98028.72;;;-0.31;100.00
61039;BME280;46919;45.816;3.104;2022-12-07T00:28:52;98025.25;;;-0.31;100.00
61039;BME280;46919;45.816;3.104;2022-12-07T00:31:21;98028.72;;;-0.31;100.00
61039;BME280;46919;45.816;3.104;2022-12-07T00:33:47;98029.72;;;-0.32;100.00
61039;BME280;46919;45.816;3.104;2022-12-07T00:36:18;98027.06;;;-0.32;100.00
61039;BME280;46919;45.816;3.104;2022-12-07T00:38:44;98029.03;;;-0.34;100.00
61039;BME280;46919;45.816;3.104;2022-12-07T00:41:17;98026.44;;;-0.26;100.00
61039;BME280;46919;45.816;3.104;2022-12-07T00:43:44;98030.13;;;-0.27;100.00
61039;BME280;46919;45.816;3.104;2022-12-07T00:46:11;98031.53;;;-0.32;100.00
61039;BME280;46919;45.816;3.104;2022-12-07T00:48:37;98030.72;;;-0.33;100.00
61039;BME280;46919;45.816;3.104;2022-12-07T00:51:04;98016.28;;;-0.30;100.00
61039;BME280;46919;45.816;3.104;2022-12-07T00:53:29;98016.75;;;-0.35;100.00
61039;BME280;46919;45.816;3.104;2022-12-07T00:55:55;98021.38;;;-0.37;100.00
61039;BME280;46919;45.816;3.104;2022-12-07T00:58:22;98016.88;;;-0.37;100.00
61039;BME280;46919;45.816;3.104;2022-12-07T01:00:48;98009.25;;;-0.40;100.00
61039;BME280;46919;45.816;3.104;2022-12-07T01:03:15;98016.88;;;-0.37;100.00
61039;BME280;46919;45.816;3.104;2022-12-07T01:05:49;98011.28;;;-0.33;100.00
61039;BME280;46919;45.816;3.104;2022-12-07T01:08:15;98010.31;;;-0.32;100.00
61039;BME280;46919;45.816;3.104;2022-12-07T01:10:40;98011.13;;;-0.32;100.00
61039;BME280;46919;45.816;3.104;2022-12-07T01:13:05;98012.81;;;-0.31;100.00
61039;BME280;46919;45.816;3.104;2022-12-07T01:15:31;98010.59;;;-0.35;100.00
61039;BME280;46919;45.816;3.104;2022-12-07T01:17:56;98013.09;;;-0.34;100.00
61039;BME280;46919;45.816;3.104;2022-12-07T01:20:22;98011.13;;;-0.32;100.00
61039;BME280;46919;45.816;3.104;2022-12-07T01:22:47;98015.47;;;-0.31;100.00
61039;BME280;46919;45.816;3.104;2022-12-07T01:25:12;98016.69;;;-0.25;100.00
61039;BME280;46919;45.816;3.104;2022-12-07T01:27:38;98007.84;;;-0.26;100.00
61039;BME280;46919;45.816;3.104;2022-12-07T01:30:05;98011.69;;;-0.28;100.00
61039;BME280;46919;45.816;3.104;2022-12-07T01:32:33;98014.19;;;-0.27;100.00
61039;BME280;46919;45.816;3.104;2022-12-07T01:34:58;98007.19;;;-0.28;100.00
61039;BME280;46919;45.816;3.104;2022-12-07T01:37:24;98014.19;;;-0.27;100.00
61039;BME280;46919;45.816;3.104;2022-12-07T01:39:51;98015.81;;;-0.26;100.00
61039;BME280;46919;45.816;3.104;2022-12-07T01:42:17;98013.47;;;-0.29;100.00
61039;BME280;46919;45.816;3.104;2022-12-07T01:47:50;98014.63;;;-0.31;100.00
61039;BME280;46919;45.816;3.104;2022-12-07T01:50:19;98015.31;;;-0.29;100.00
61039;BME280;46919;45.816;3.104;2022-12-07T01:52:48;98013.78;;;-0.32;100.00
61039;BME280;46919;45.816;3.104;2022-12-07T01:55:15;98011.28;;;-0.33;100.00
61039;BME280;46919;45.816;3.104;2022-12-07T01:57:45;98005.97;;;-0.33;100.00
61039;BME280;46919;45.816;3.104;2022-12-07T02:00:13;98000.94;;;-0.37;100.00
61039;BME280;46919;45.816;3.104;2022-12-07T02:02:44;98009.63;;;-0.34;100.00
61039;BME280;46919;45.816;3.104;2022-12-07T02:05:13;98013.41;;;-0.37;100.00
61039;BME280;46919;45.816;3.104;2022-12-07T02:07:39;98014.22;;;-0.37;100.00
61039;BME280;46919;45.816;3.104;2022-12-07T02:10:20;98014.22;;;-0.37;100.00
61039;BME280;46919;45.816;3.104;2022-12-07T02:12:49;98013.41;;;-0.37;100.00
61039;BME280;46919;45.816;3.104;2022-12-07T02:15:16;98016.75;;;-0.35;100.00
61039;BME280;46919;45.816;3.104;2022-12-07T02:17:54;98011.28;;;-0.33;100.00
61039;BME280;46919;45.816;3.104;2022-12-07T02:20:33;98005.28;;;-0.35;100.00
61039;BME280;46919;45.816;3.104;2022-12-07T02:28:34;98015.69;;;-0.42;100.00
61039;BME280;46919;45.816;3.104;2022-12-07T02:31:18;98016.44;;;-0.32;100.00
61039;BME280;46919;45.816;3.104;2022-12-07T02:33:58;98016.59;;;-0.33;100.00
61039;BME280;46919;45.816;3.104;2022-12-07T02:36:30;98016.13;;;-0.29;100.00
61039;BME280;46919;45.816;3.104;2022-12-07T02:39:11;98013.78;;;-0.32;100.00
61039;BME280;46919;45.816;3.104;2022-12-07T02:41:44;98007.78;;;-0.34;100.00
61039;BME280;46919;45.816;3.104;2022-12-07T02:44:14;98011.28;;;-0.33;100.00
61039;BME280;46919;45.816;3.104;2022-12-07T02:46:51;98010.75;;;-0.37;100.00
61039;BME280;46919;45.816;3.104;2022-12-07T02:49:18;98019.03;;;-0.40;100.00
61039;BME280;46919;45.816;3.104;2022-12-07T02:51:46;98011.34;;;-0.43;100.00
61039;BME280;46919;45.816;3.104;2022-12-07T02:54:14;98004.63;;;-0.38;100.00
61039;BME280;46919;45.816;3.104;2022-12-07T03:02:39;98005.28;;;-0.35;100.00
61039;BME280;46919;45.816;3.104;2022-12-07T03:10:44;97984.56;;;-0.32;100.00
61039;BME280;46919;45.816;3.104;2022-12-07T03:19:09;98005.13;;;-0.34;100.00
61039;BME280;46919;45.816;3.104;2022-12-07T03:21:41;98003.16;;;-0.32;100.00
61039;BME280;46919;45.816;3.104;2022-12-07T03:24:23;97996.88;;;-0.31;100.00
61039;BME280;46919;45.816;3.104;2022-12-07T03:26:58;97985.88;;;-0.36;100.00
61039;BME280;46919;45.816;3.104;2022-12-07T03:29:34;97989.66;;;-0.39;100.00
61039;BME280;46919;45.816;3.104;2022-12-07T03:32:32;97996.13;;;-0.41;100.00
61039;BME280;46919;45.816;3.104;2022-12-07T03:35:19;97985.50;;;-0.41;100.00
61039;BME280;46919;45.816;3.104;2022-12-07T03:37:53;97976.38;;;-0.39;100.00
61039;BME280;46919;45.816;3.104;2022-12-07T03:40:32;97977.38;;;-0.40;100.00
61039;BME280;46919;45.816;3.104;2022-12-07T03:43:00;97979.03;;;-0.39;100.00
61039;BME280;46919;45.816;3.104;2022-12-07T03:45:35;97978.88;;;-0.37;100.00
61039;BME280;46919;45.816;3.104;2022-12-07T03:48:29;97976.53;;;-0.40;100.00
61039;BME280;46919;45.816;3.104;2022-12-07T03:53:44;97975.03;;;-0.43;100.00
61039;BME280;46919;45.816;3.104;2022-12-07T03:56:12;97967.59;;;-0.39;100.00
61039;BME280;46919;45.816;3.104;2022-12-07T03:58:38;97972.59;;;-0.36;100.00
61039;BME280;46919;45.816;3.104;2022-12-07T04:01:05;97973.41;;;-0.35;100.00
61039;BME280;46919;45.816;3.104;2022-12-07T04:03:30;97967.97;;;-0.34;100.00
61039;BME280;46919;45.816;3.104;2022-12-07T04:05:56;97962.81;;;-0.35;100.00
61039;BME280;46919;45.816;3.104;2022-12-07T04:08:23;97961.97;;;-0.36;100.00
61039;BME280;46919;45.816;3.104;2022-12-07T04:10:48;97959.69;;;-0.31;100.00
61039;BME280;46919;45.816;3.104;2022-12-07T04:13:13;97964.19;;;-0.31;100.00
61039;BME280;46919;45.816;3.104;2022-12-07T04:15:39;97965.31;;;-0.34;100.00
61039;BME280;46919;45.816;3.104;2022-12-07T04:18:04;97961.97;;;-0.36;100.00
61039;BME280;46919;45.816;3.104;2022-12-07T04:20:30;97963.63;;;-0.35;100.00
61039;BME280;46919;45.816;3.104;2022-12-07T04:22:55;97959.00;;;-0.33;100.00
61039;BME280;46919;45.816;3.104;2022-12-07T04:25:21;97962.50;;;-0.32;100.00
61039;BME280;46919;45.816;3.104;2022-12-07T04:27:46;97969.63;;;-0.33;100.00
61039;BME280;46919;45.816;3.104;2022-12-07T04:30:12;97971.28;;;-0.32;100.00
61039;BME280;46919;45.816;3.104;2022-12-07T04:32:37;97974.19;;;-0.25;100.00
61039;BME280;46919;45.816;3.104;2022-12-07T04:35:03;97977.66;;;-0.25;100.00
61039;BME280;46919;45.816;3.104;2022-12-07T04:37:29;97977.16;;;-0.28;100.00
61039;BME280;46919;45.816;3.104;2022-12-07T04:39:54;97969.69;;;-0.25;100.00
61039;BME280;46919;45.816;3.104;2022-12-07T04:42:19;97968.72;;;-0.24;100.00
61039;BME280;46919;45.816;3.104;2022-12-07T04:44:45;97969.69;;;-0.25;100.00
61039;BME280;46919;45.816;3.104;2022-12-07T04:47:10;97969.19;;;-0.28;100.00
61039;BME280;46919;45.816;3.104;2022-12-07T04:49:36;97965.06;;;-0.23;100.00
61039;BME280;46919;45.816;3.104;2022-12-07T04:52:01;97959.75;;;-0.23;100.00
61039;BME280;46919;45.816;3.104;2022-12-07T04:54:27;97955.03;;;-0.29;100.00
61039;BME280;46919;45.816;3.104;2022-12-07T04:56:52;97963.16;;;-0.30;100.00
61039;BME280;46919;45.816;3.104;2022-12-07T04:59:18;97962.34;;;-0.31;100.00
61039;BME280;46919;45.816;3.104;2022-12-07T05:01:43;97963.00;;;-0.29;100.00
61039;BME280;46919;45.816;3.104;2022-12-07T05:04:09;97962.19;;;-0.29;100.00
61039;BME280;46919;45.816;3.104;2022-12-07T05:06:34;97961.72;;;-0.25;100.00
61039;BME280;46919;45.816;3.104;2022-12-07T05:09:00;97960.50;;;-0.30;100.00
61039;BME280;46919;45.816;3.104;2022-12-07T05:11:26;97957.03;;;-0.31;100.00
61039;BME280;46919;45.816;3.104;2022-12-07T05:14:06;97952.38;;;-0.29;100.00
61039;BME280;46919;45.816;3.104;2022-12-07T05:16:32;97945.78;;;-0.25;100.00
61039;BME280;46919;45.816;3.104;2022-12-07T05:18:58;97944.81;;;-0.24;100.00
61039;BME280;46919;45.816;3.104;2022-12-07T05:21:24;97939.50;;;-0.24;100.00
61039;BME280;46919;45.816;3.104;2022-12-07T05:23:49;97940.16;;;-0.22;100.00
61039;BME280;46919;45.816;3.104;2022-12-07T05:26:15;97937.16;;;-0.27;100.00
61039;BME280;46919;45.816;3.104;2022-12-07T05:28:40;97938.13;;;-0.28;100.00
61039;BME280;46919;45.816;3.104;2022-12-07T05:31:06;97929.50;;;-0.30;100.00
61039;BME280;46919;45.816;3.104;2022-12-07T05:33:31;97927.81;;;-0.31;100.00
61039;BME280;46919;45.816;3.104;2022-12-07T05:35:57;97941.75;;;-0.29;100.00
61039;BME280;46919;45.816;3.104;2022-12-07T05:38:23;97936.84;;;-0.24;100.00
61039;BME280;46919;45.816;3.104;2022-12-07T05:40:50;97935.00;;;-0.23;100.00
61039;BME280;46919;45.816;3.104;2022-12-07T05:43:15;97934.41;;;-0.17;100.00
61039;BME280;46919;45.816;3.104;2022-12-07T05:45:40;97929.09;;;-0.17;100.00
61039;BME280;46919;45.816;3.104;2022-12-07T05:48:06;97937.22;;;-0.19;100.00
61039;BME280;46919;45.816;3.104;2022-12-07T05:50:32;97935.84;;;-0.23;100.00
61039;BME280;46919;45.816;3.104;2022-12-07T05:52:57;97937.00;;;-0.25;100.00
61039;BME280;46919;45.816;3.104;2022-12-07T05:55:22;97937.63;;;-0.31;100.00
61039;BME280;46919;45.816;3.104;2022-12-07T05:57:48;97944.06;;;-0.34;100.00
61039;BME280;46919;45.816;3.104;2022-12-07T06:00:32;97941.09;;;-0.31;100.00
61039;BME280;46919;45.816;3.104;2022-12-07T06:02:58;97931.59;;;-0.33;100.00
61039;BME280;46919;45.816;3.104;2022-12-07T06:05:23;97941.25;;;-0.32;100.00
61039;BME280;46919;45.816;3.104;2022-12-07T06:07:49;97944.06;;;-0.34;100.00
61039;BME280;46919;45.816;3.104;2022-12-07T06:10:14;97938.44;;;-0.31;100.00
61039;BME280;46919;45.816;3.104;2022-12-07T06:12:40;97943.75;;;-0.31;100.00
61039;BME280;46919;45.816;3.104;2022-12-07T06:15:08;97933.13;;;-0.31;100.00
61039;BME280;46919;45.816;3.104;2022-12-07T06:17:34;97938.44;;;-0.31;100.00
61039;BME280;46919;45.816;3.104;2022-12-07T06:19:59;97947.06;;;-0.29;100.00
61039;BME280;46919;45.816;3.104;2022-12-07T06:22:24;97940.94;;;-0.29;100.00
61039;BME280;46919;45.816;3.104;2022-12-07T06:24:50;97940.31;;;-0.23;100.00
61039;BME280;46919;45.816;3.104;2022-12-07T06:27:15;97936.69;;;-0.22;100.00
61039;BME280;46919;45.816;3.104;2022-12-07T06:29:41;97933.19;;;-0.23;100.00
61039;BME280;46919;45.816;3.104;2022-12-07T06:32:06;97937.81;;;-0.25;100.00
61039;BME280;46919;45.816;3.104;2022-12-07T06:34:32;97936.47;;;-0.29;100.00
61039;BME280;46919;45.816;3.104;2022-12-07T06:36:57;97939.81;;;-0.27;100.00
61039;BME280;46919;45.816;3.104;2022-12-07T06:39:25;97939.56;;;-0.33;100.00
61039;BME280;46919;45.816;3.104;2022-12-07T06:41:51;97941.56;;;-0.35;100.00
61039;BME280;46919;45.816;3.104;2022-12-07T06:44:18;97944.56;;;-0.30;100.00
61039;BME280;46919;45.816;3.104;2022-12-07T06:46:43;97949.06;;;-0.31;100.00
61039;BME280;46919;45.816;3.104;2022-12-07T06:49:09;97945.44;;;-0.30;100.00
61039;BME280;46919;45.816;3.104;2022-12-07T06:51:35;97944.28;;;-0.27;100.00
61039;BME280;46919;45.816;3.104;2022-12-07T06:54:03;97954.75;;;-0.26;100.00
61039;BME280;46919;45.816;3.104;2022-12-07T06:56:28;97955.75;;;-0.27;100.00
61039;BME280;46919;45.816;3.104;2022-12-07T06:58:54;97953.75;;;-0.25;100.00
61039;BME280;46919;45.816;3.104;2022-12-07T07:01:19;97957.09;;;-0.23;100.00
61039;BME280;46919;45.816;3.104;2022-12-07T07:03:46;97965.75;;;-0.21;100.00
61039;BME280;46919;45.816;3.104;2022-12-07T07:06:13;97953.16;;;-0.19;100.00
61039;BME280;46919;45.816;3.104;2022-12-07T07:08:39;97963.41;;;-0.24;100.00
61039;BME280;46919;45.816;3.104;2022-12-07T07:11:06;97955.59;;;-0.25;100.00
61039;BME280;46919;45.816;3.104;2022-12-07T07:13:32;97949.28;;;-0.24;100.00
61039;BME280;46919;45.816;3.104;2022-12-07T07:15:57;97947.31;;;-0.22;100.00
61039;BME280;46919;45.816;3.104;2022-12-07T07:18:23;97947.16;;;-0.21;100.00
61039;BME280;46919;45.816;3.104;2022-12-07T07:20:50;97958.16;;;-0.15;100.00
61039;BME280;46919;45.816;3.104;2022-12-07T07:23:16;97953.16;;;-0.19;100.00
61039;BME280;46919;45.816;3.104;2022-12-07T07:25:41;97951.81;;;-0.14;100.00
61039;BME280;46919;45.816;3.104;2022-12-07T07:28:07;97949.81;;;-0.21;100.00
61039;BME280;46919;45.816;3.104;2022-12-07T07:30:32;97949.97;;;-0.22;100.00
61039;BME280;46919;45.816;3.104;2022-12-07T07:32:59;97953.66;;;-0.15;100.00
61039;BME280;46919;45.816;3.104;2022-12-07T07:35:26;97963.66;;;-0.09;100.00
61039;BME280;46919;45.816;3.104;2022-12-07T07:37:51;97969.50;;;-0.05;100.00
61039;BME280;46919;45.816;3.104;2022-12-07T07:40:17;97967.53;;;-0.03;100.00
61039;BME280;46919;45.816;3.104;2022-12-07T07:42:42;97969.72;;;0.02;100.00
61039;BME280;46919;45.816;3.104;2022-12-07T07:45:09;97970.88;;;-0.01;100.00
61039;BME280;46919;45.816;3.104;2022-12-07T07:47:34;97966.22;;;0.01;100.00
61039;BME280;46919;45.816;3.104;2022-12-07T07:50:00;97969.03;;;-0.01;100.00
61039;BME280;46919;45.816;3.104;2022-12-07T07:52:26;97973.69;;;-0.03;100.00
61039;BME280;46919;45.816;3.104;2022-12-07T07:54:51;97978.31;;;-0.05;100.00
61039;BME280;46919;45.816;3.104;2022-12-07T07:57:17;97986.06;;;-0.11;100.00
61039;BME280;46919;45.816;3.104;2022-12-07T07:59:43;97987.72;;;-0.10;100.00
61039;BME280;46919;45.816;3.104;2022-12-07T08:02:16;97990.38;;;-0.10;100.00
61039;BME280;46919;45.816;3.104;2022-12-07T08:04:43;97989.09;;;-0.06;100.00
61039;BME280;46919;45.816;3.104;2022-12-07T08:07:08;97990.53;;;-0.12;100.00
61039;BME280;46919;45.816;3.104;2022-12-07T08:09:34;97984.09;;;-0.09;100.00
61039;BME280;46919;45.816;3.104;2022-12-07T08:11:59;97996.91;;;-0.05;100.00
61039;BME280;46919;45.816;3.104;2022-12-07T08:14:25;97996.78;;;-0.03;100.00
61039;BME280;46919;45.816;3.104;2022-12-07T08:16:52;97998.09;;;0.01;100.00
61039;BME280;46919;45.816;3.104;2022-12-07T08:19:18;98004.44;;;0.00;100.00
61039;BME280;46919;45.816;3.104;2022-12-07T08:21:43;97999.13;;;0.00;100.00
61039;BME280;46919;45.816;3.104;2022-12-07T08:24:08;98008.69;;;-0.07;100.00
61039;BME280;46919;45.816;3.104;2022-12-07T08:26:34;98003.06;;;-0.04;100.00
61039;BME280;46919;45.816;3.104;2022-12-07T08:28:59;98003.28;;;0.03;100.00
61039;BME280;46919;45.816;3.104;2022-12-07T08:31:25;98004.94;;;0.04;100.00
61039;BME280;46919;45.816;3.104;2022-12-07T08:33:50;98000.16;;;0.07;100.00
61039;BME280;46919;45.816;3.104;2022-12-07T08:36:16;97995.66;;;0.08;100.00
61039;BME280;46919;45.816;3.104;2022-12-07T08:38:42;98003.16;;;0.12;100.00
61039;BME280;46919;45.816;3.104;2022-12-07T08:41:08;97993.25;;;0.14;100.00
61039;BME280;46919;45.816;3.104;2022-12-07T08:43:34;97997.44;;;0.25;100.00
61039;BME280;46919;45.816;3.104;2022-12-07T08:46:37;97996.81;;;0.31;100.00
61039;BME280;46919;45.816;3.104;2022-12-07T08:49:13;97999.63;;;0.30;100.00
61039;BME280;46919;45.816;3.104;2022-12-07T08:51:40;98005.56;;;0.24;100.00
61039;BME280;46919;45.816;3.104;2022-12-07T08:54:09;98010.06;;;0.23;100.00
61039;BME280;46919;45.816;3.104;2022-12-07T08:56:36;98011.56;;;0.26;100.00
61039;BME280;46919;45.816;3.104;2022-12-07T08:59:02;98007.28;;;0.33;100.00
61039;BME280;46919;45.816;3.104;2022-12-07T09:01:28;98013.31;;;0.35;100.00
61039;BME280;46919;45.816;3.104;2022-12-07T09:03:54;98014.78;;;0.38;100.00
61039;BME280;46919;45.816;3.104;2022-12-07T09:06:19;98027.25;;;0.37;100.00
61039;BME280;46919;45.816;3.104;2022-12-07T09:08:47;98023.28;;;0.41;100.00
61039;BME280;46919;45.816;3.104;2022-12-07T09:11:14;98019.34;;;0.45;100.00
61039;BME280;46919;45.816;3.104;2022-12-07T09:13:40;98020.69;;;0.49;100.00
61039;BME280;46919;45.816;3.104;2022-12-07T09:16:05;98029.03;;;0.54;100.00
61039;BME280;46919;45.816;3.104;2022-12-07T09:18:31;98017.41;;;0.56;100.00
61039;BME280;46919;45.816;3.104;2022-12-07T09:20:56;98029.53;;;0.58;100.00
61039;BME280;46919;45.816;3.104;2022-12-07T09:23:22;98029.03;;;0.54;100.00
61039;BME280;46919;45.816;3.104;2022-12-07T09:25:47;98022.34;;;0.50;100.00
61039;BME280;46919;45.816;3.104;2022-12-07T09:28:12;98023.09;;;0.61;100.00
61039;BME280;46919;45.816;3.104;2022-12-07T09:30:38;98016.09;;;0.60;100.00
61039;BME280;46919;45.816;3.104;2022-12-07T09:33:03;98025.75;;;0.61;100.00
61039;BME280;46919;45.816;3.104;2022-12-07T09:35:29;98026.41;;;0.63;100.00
61039;BME280;46919;45.816;3.104;2022-12-07T09:37:54;98028.59;;;0.67;100.00
61039;BME280;46919;45.816;3.104;2022-12-07T09:40:21;98024.78;;;0.70;100.00
61039;BME280;46919;45.816;3.104;2022-12-07T09:42:51;98024.94;;;0.68;100.00
61039;BME280;46919;45.816;3.104;2022-12-07T09:45:22;98022.63;;;0.65;100.00
61039;BME280;46919;45.816;3.104;2022-12-07T09:47:48;98024.94;;;0.68;100.00
61039;BME280;46919;45.816;3.104;2022-12-07T09:50:21;98023.78;;;0.71;100.00
61039;BME280;46919;45.816;3.104;2022-12-07T09:52:47;98026.09;;;0.66;100.00
61039;BME280;46919;45.816;3.104;2022-12-07T09:55:24;98022.94;;;0.62;100.00
61039;BME280;46919;45.816;3.104;2022-12-07T09:57:52;98017.75;;;0.61;100.00
61039;BME280;46919;45.816;3.104;2022-12-07T10:00:20;98026.75;;;0.68;100.00
61039;BME280;46919;45.816;3.104;2022-12-07T10:02:59;98026.59;;;0.69;100.00
61039;BME280;46919;45.816;3.104;2022-12-07T10:05:42;98015.81;;;0.71;100.00
61039;BME280;46919;45.816;3.104;2022-12-07T10:08:12;98017.50;;;0.80;100.00
61039;BME280;46919;45.816;3.104;2022-12-07T10:10:38;98019.22;;;0.89;100.00
61039;BME280;46919;45.816;3.104;2022-12-07T10:13:13;98016.56;;;0.89;100.00
61039;BME280;46919;45.816;3.104;2022-12-07T10:21:20;98007.91;;;0.87;100.00
61039;BME280;46919;45.816;3.104;2022-12-07T10:24:08;98003.59;;;0.95;100.00
61039;BME280;46919;45.816;3.104;2022-12-07T10:26:50;98001.28;;;1.00;100.00
61039;BME280;46919;45.816;3.104;2022-12-07T10:29:17;98003.59;;;0.95;100.00
61039;BME280;46919;45.816;3.104;2022-12-07T10:31:45;98004.78;;;0.92;100.00
61039;BME280;46919;45.816;3.104;2022-12-07T10:34:31;98007.28;;;0.94;100.00
61039;BME280;46919;45.816;3.104;2022-12-07T10:39:46;98002.16;;;1.08;100.00
61039;BME280;46919;45.816;3.104;2022-12-07T10:42:31;97992.81;;;1.04;100.00
61039;BME280;46919;45.816;3.104;2022-12-07T10:45:17;97984.16;;;1.02;100.00
61039;BME280;46919;45.816;3.104;2022-12-07T10:53:07;97969.56;;;1.06;100.00
61039;BME280;46919;45.816;3.104;2022-12-07T11:01:30;97980.53;;;1.12;100.00
61039;BME280;46919;45.816;3.104;2022-12-07T11:06:51;97975.38;;;1.10;100.00
61039;BME280;46919;45.816;3.104;2022-12-07T11:09:36;97975.22;;;1.12;100.00
61039;BME280;46919;45.816;3.104;2022-12-07T11:20:55;97953.09;;;1.19;100.00
61039;BME280;46919;45.816;3.104;2022-12-07T11:26:11;97953.44;;;1.16;100.00
61039;BME280;46919;45.816;3.104;2022-12-07T11:36:43;97950.59;;;1.10;100.00
61039;BME280;46919;45.816;3.104;2022-12-07T11:39:46;97941.94;;;1.16;100.00
61039;BME280;46919;45.816;3.104;2022-12-07T11:42:31;97939.97;;;1.18;100.00
61039;BME280;46919;45.816;3.104;2022-12-07T11:45:13;97939.81;;;1.19;100.00
61039;BME280;46919;45.816;3.104;2022-12-07T11:48:04;97932.47;;;1.30;100.00
61039;BME280;46919;45.816;3.104;2022-12-07T11:50:41;97924.16;;;1.41;100.00
61039;BME280;46919;45.816;3.104;2022-12-07T11:58:42;97908.19;;;1.57;100.00
61039;BME280;46919;45.816;3.104;2022-12-07T12:04:05;97909.84;;;1.75;100.00
61039;BME280;46919;45.816;3.104;2022-12-07T12:06:39;97905.66;;;1.89;100.00
61039;BME280;46919;45.816;3.104;2022-12-07T12:19:37;97888.75;;;2.21;100.00
61039;BME280;46919;45.816;3.104;2022-12-07T12:22:14;97886.91;;;2.22;100.00
61039;BME280;46919;45.816;3.104;2022-12-07T12:24:43;97891.22;;;2.31;100.00
61039;BME280;46919;45.816;3.104;2022-12-07T12:27:37;97888.69;;;2.38;100.00
61039;BME280;46919;45.816;3.104;2022-12-07T12:30:05;97882.03;;;2.42;100.00
61039;BME280;46919;45.816;3.104;2022-12-07T12:32:42;97878.66;;;2.48;100.00
61039;BME280;46919;45.816;3.104;2022-12-07T12:35:26;97874.63;;;2.52;100.00
61039;BME280;46919;45.816;3.104;2022-12-07T12:37:54;97881.34;;;2.48;100.00
61039;BME280;46919;45.816;3.104;2022-12-07T12:42:55;97869.63;;;2.49;100.00
61039;BME280;46919;45.816;3.104;2022-12-07T12:45:26;97861.13;;;2.53;100.00
61039;BME280;46919;45.816;3.104;2022-12-07T12:47:55;97864.59;;;2.62;100.00
61039;BME280;46919;45.816;3.104;2022-12-07T13:00:45;97846.34;;;2.43;100.00
61039;BME280;46919;45.816;3.104;2022-12-07T13:03:29;97852.69;;;2.42;100.00
61039;BME280;46919;45.816;3.104;2022-12-07T13:08:56;97836.38;;;2.37;100.00
61039;BME280;46919;45.816;3.104;2022-12-07T13:11:35;97830.38;;;2.34;100.00
61039;BME280;46919;45.816;3.104;2022-12-07T13:19:57;97825.03;;;2.34;100.00
61039;BME280;46919;45.816;3.104;2022-12-07T13:25:12;97825.72;;;2.37;100.00
61039;BME280;46919;45.816;3.104;2022-12-07T13:27:48;97819.69;;;2.34;100.00
61039;BME280;46919;45.816;3.104;2022-12-07T13:30:19;97812.03;;;2.40;100.00
61039;BME280;46919;45.816;3.104;2022-12-07T13:32:56;97809.19;;;2.41;100.00
61039;BME280;46919;45.816;3.104;2022-12-07T13:35:34;97801.00;;;2.43;100.00
61039;BME280;46919;45.816;3.104;2022-12-07T13:38:22;97805.84;;;2.39;100.00
61039;BME280;46919;45.816;3.104;2022-12-07T13:41:19;97801.34;;;2.40;100.00
61039;BME280;46919;45.816;3.104;2022-12-07T13:44:09;97799.72;;;2.30;100.00
61039;BME280;46919;45.816;3.104;2022-12-07T13:52:14;97791.59;;;2.24;100.00
61039;BME280;46919;45.816;3.104;2022-12-07T13:54:55;97801.06;;;2.26;100.00
61039;BME280;46919;45.816;3.104;2022-12-07T13:57:22;97800.59;;;2.23;100.00
61039;BME280;46919;45.816;3.104;2022-12-07T13:59:48;97794.28;;;2.15;100.00
61039;BME280;46919;45.816;3.104;2022-12-07T14:02:23;97788.00;;;2.08;100.00
61039;BME280;46919;45.816;3.104;2022-12-07T14:04:50;97790.53;;;2.02;100.00
61039;BME280;46919;45.816;3.104;2022-12-07T14:07:25;97786.03;;;2.02;100.00
61039;BME280;46919;45.816;3.104;2022-12-07T14:10:00;97789.50;;;2.03;100.00
61039;BME280;46919;45.816;3.104;2022-12-07T14:12:28;97786.66;;;2.04;100.00
61039;BME280;46919;45.816;3.104;2022-12-07T14:14:54;97791.22;;;1.95;100.00
61039;BME280;46919;45.816;3.104;2022-12-07T14:17:23;97781.56;;;1.94;100.00
61039;BME280;46919;45.816;3.104;2022-12-07T14:20:00;97784.72;;;1.90;100.00
61039;BME280;46919;45.816;3.104;2022-12-07T14:22:34;97790.91;;;1.82;100.00
61039;BME280;46919;45.816;3.104;2022-12-07T14:27:58;97790.25;;;1.80;100.00
61039;BME280;46919;45.816;3.104;2022-12-07T14:30:29;97789.59;;;1.86;100.00
61039;BME280;46919;45.816;3.104;2022-12-07T14:33:05;97782.91;;;1.82;100.00
61039;BME280;46919;45.816;3.104;2022-12-07T14:35:32;97787.28;;;1.75;100.00
61039;BME280;46919;45.816;3.104;2022-12-07T14:37:58;97778.97;;;1.70;100.00
61039;BME280;46919;45.816;3.104;2022-12-07T14:40:28;97777.66;;;1.66;100.00
61039;BME280;46919;45.816;3.104;2022-12-07T14:42:57;97775.97;;;1.65;100.00
61039;BME280;46919;45.816;3.104;2022-12-07T14:45:24;97770.31;;;1.68;100.00
61039;BME280;46919;45.816;3.104;2022-12-07T14:47:50;97772.63;;;1.71;100.00
61039;BME280;46919;45.816;3.104;2022-12-07T14:50:17;97770.66;;;1.65;100.00
61039;BME280;46919;45.816;3.104;2022-12-07T14:52:46;97772.47;;;1.72;100.00
61039;BME280;46919;45.816;3.104;2022-12-07T14:55:39;97766.31;;;1.72;99.27
61039;BME280;46919;45.816;3.104;2022-12-07T14:58:05;97762.16;;;1.69;99.44
61039;BME280;46919;45.816;3.104;2022-12-07T15:00:30;97756.50;;;1.64;98.77
61039;BME280;46919;45.816;3.104;2022-12-07T15:02:56;97762.84;;;1.63;98.90
61039;BME280;46919;45.816;3.104;2022-12-07T15:05:22;97758.53;;;1.62;98.70
61039;BME280;46919;45.816;3.104;2022-12-07T15:07:48;97758.69;;;1.60;97.92
61039;BME280;46919;45.816;3.104;2022-12-07T15:10:22;97750.03;;;1.58;97.86